createdAt,value
2022-08-18T00:01:11.692Z,184.70435
2022-08-18T00:06:16.244Z,181.26745
2022-08-18T00:11:17.941Z,177.11945
2022-08-18T00:16:19.708Z,169.5938
2022-08-18T00:21:21.351Z,164.31995
2022-08-18T00:26:23.032Z,158.09795
2022-08-18T00:31:24.717Z,153.1796
2022-08-18T00:36:26.578Z,149.4464
2022-08-18T00:41:28.217Z,144.17245
2022-08-18T00:46:29.918Z,138.12825
2022-08-18T00:51:31.563Z,126.9286
2022-08-18T00:56:33.465Z,102.5145
2022-08-18T01:01:35.224Z,72.35255
2022-08-18T01:06:36.904Z,53.6866
2022-08-18T01:11:38.560Z,45.44985
2022-08-18T01:16:40.216Z,41.5982
2022-08-18T01:21:58.502Z,39.1687
2022-08-18T01:27:00.287Z,23.1102
2022-08-18T01:32:01.931Z,28.143
2022-08-18T01:37:03.584Z,27.58965
2022-08-18T01:42:05.308Z,23.31115
2022-08-18T01:47:06.997Z,26.24335
2022-08-18T01:52:08.649Z,22.94225
2022-08-18T01:57:10.286Z,22.7578
2022-08-18T02:02:18.202Z,22.57335
2022-08-18T02:07:20.256Z,19.27225
2022-08-18T02:12:22.232Z,19.0878
2022-08-18T02:17:23.855Z,10.5308
2022-08-18T02:22:25.531Z,13.463
2022-08-18T02:27:27.225Z,13.27855
2022-08-18T02:32:29.370Z,11.93225
2022-08-18T02:37:31.227Z,9.60855
2022-08-18T02:42:32.883Z,4.5628
2022-08-18T02:47:34.577Z,4.0295
2022-08-18T02:52:36.415Z,4.59225
2022-08-18T02:57:38.873Z,2.4888
2022-08-18T03:02:40.571Z,2.87705
2022-08-18T03:07:44.032Z,1.2444
2022-08-18T03:12:45.770Z,0.8296
2022-08-18T03:17:47.571Z,0.4148
2022-08-18T03:22:49.262Z,1.16185
2022-08-18T03:27:52.264Z,0
2022-08-18T03:32:54.020Z,0
2022-08-18T03:37:55.669Z,0
2022-08-18T03:42:57.316Z,0
2022-08-18T03:48:03.665Z,0
2022-08-18T03:53:05.293Z,0
2022-08-18T03:58:07.054Z,0
2022-08-18T04:03:08.637Z,0
2022-08-18T04:08:10.273Z,0
2022-08-18T04:13:11.917Z,0
2022-08-18T04:18:13.520Z,0
2022-08-18T04:23:15.156Z,0
2022-08-18T04:28:16.821Z,0
2022-08-18T04:33:18.394Z,0
2022-08-18T04:38:20.009Z,0
2022-08-18T04:43:21.654Z,0
2022-08-18T04:48:23.243Z,0
2022-08-18T04:53:24.854Z,0
2022-08-18T04:58:26.521Z,0
2022-08-18T05:03:28.151Z,0
2022-08-18T05:08:30.392Z,0
2022-08-18T05:13:32.107Z,0
2022-08-18T05:18:33.744Z,0
2022-08-18T05:23:35.397Z,0
2022-08-18T05:28:37.146Z,0
2022-08-18T05:33:39.388Z,0
2022-08-18T05:38:41.597Z,0
2022-08-18T05:43:51.277Z,0
2022-08-18T05:48:54.125Z,0
2022-08-18T05:53:55.886Z,0
2022-08-18T05:58:57.496Z,0
2022-08-18T06:03:59.929Z,0
2022-08-18T06:09:01.528Z,0
2022-08-18T06:14:03.399Z,0
2022-08-18T06:19:05.012Z,0
2022-08-18T06:24:06.641Z,0
2022-08-18T06:29:08.224Z,0
2022-08-18T06:34:09.935Z,0
2022-08-18T06:39:11.531Z,0
2022-08-18T06:44:13.200Z,0
2022-08-18T06:49:14.783Z,0
2022-08-18T06:54:16.507Z,0
2022-08-18T06:59:18.142Z,0
2022-08-18T07:04:19.880Z,0
2022-08-18T07:09:21.487Z,0
2022-08-18T07:14:23.141Z,0
2022-08-18T07:19:24.788Z,0
2022-08-18T07:24:26.385Z,0
2022-08-18T07:29:28.004Z,0
2022-08-18T07:34:29.634Z,0
2022-08-18T07:39:31.326Z,0
2022-08-18T07:44:32.925Z,0
2022-08-18T07:49:35.334Z,0
2022-08-18T07:54:49.443Z,0
2022-08-18T07:59:52.020Z,0
2022-08-18T08:04:53.623Z,0
2022-08-18T08:09:55.257Z,0
2022-08-18T08:14:56.868Z,0
2022-08-18T08:20:01.309Z,0
2022-08-18T08:25:03.378Z,0
2022-08-18T08:30:04.991Z,0
2022-08-18T08:35:06.781Z,0
2022-08-18T08:40:08.612Z,0
2022-08-18T08:45:10.255Z,0
2022-08-18T08:50:11.860Z,0
2022-08-18T08:55:13.426Z,0
2022-08-18T09:00:15.023Z,0
2022-08-18T09:05:16.590Z,0
2022-08-18T09:10:18.232Z,0
2022-08-18T09:15:19.853Z,0
2022-08-18T09:20:21.544Z,0
2022-08-18T09:25:23.168Z,0
2022-08-18T09:30:24.894Z,0
2022-08-18T09:35:26.499Z,0
2022-08-18T09:40:51.282Z,0
2022-08-18T09:46:03.007Z,0
2022-08-18T09:51:04.644Z,0
2022-08-18T09:56:06.255Z,0
2022-08-18T10:01:07.958Z,0
2022-08-18T13:09:54.272Z,6.30745
2022-08-18T13:14:56.177Z,8.63115
2022-08-18T13:20:00.437Z,9.97745
2022-08-18T13:25:03.847Z,11.32375
2022-08-18T13:30:29.536Z,14.8093
2022-08-18T13:35:35.324Z,13.2234
2022-08-18T13:40:45.529Z,16.8934
2022-08-18T13:45:52.970Z,27.7914
2022-08-18T13:50:57.401Z,34.8429
2022-08-18T13:55:59.278Z,62.9899
2022-08-18T14:01:22.791Z,83.78905
2022-08-18T14:06:46.836Z,59.01975
2022-08-18T14:11:53.103Z,62.1011
2022-08-18T14:16:54.690Z,79.2263
2022-08-18T14:21:58.561Z,98.5441
2022-08-18T14:27:00.283Z,98.6033
2022-08-18T14:32:02.708Z,112.64715
2022-08-18T14:37:04.568Z,131.66865
2022-08-18T14:42:12.185Z,104.23275
2022-08-18T14:47:13.886Z,137.23885
2022-08-18T14:52:25.865Z,71.46375
2022-08-18T14:57:28.870Z,56.5903
2022-08-18T15:02:30.495Z,61.15305
2022-08-18T15:07:32.743Z,79.345
2022-08-18T15:12:34.677Z,80.58935
2022-08-18T15:17:37.943Z,139.78715
2022-08-18T15:22:39.732Z,203.31075
2022-08-18T15:27:42.846Z,237.44265
2022-08-18T15:32:44.926Z,262.3898
2022-08-18T15:37:46.613Z,279.33735
2022-08-18T15:42:48.385Z,257.53075
2022-08-18T15:47:50.738Z,215.7546
2022-08-18T15:52:53.142Z,191.45915
2022-08-18T15:57:56.816Z,193.2368
2022-08-18T16:03:00.008Z,211.6064
2022-08-18T16:08:02.417Z,266.7747
2022-08-18T16:13:05.015Z,291.72195
2022-08-18T16:18:06.641Z,317.26175
2022-08-18T16:23:08.454Z,323.42455
2022-08-18T16:28:10.077Z,293.20345
2022-08-18T16:33:11.696Z,268.434
2022-08-18T16:38:13.346Z,264.87855
2022-08-18T16:43:14.929Z,265.5304
2022-08-18T16:48:17.035Z,264.16755
2022-08-18T16:53:18.750Z,266.36015
2022-08-18T16:58:20.305Z,272.75995
2022-08-18T17:03:22.092Z,268.375
2022-08-18T17:08:23.670Z,270.80455
2022-08-18T17:13:25.295Z,279.69315
2022-08-18T17:18:26.888Z,279.15985
2022-08-18T17:23:28.460Z,277.85625
2022-08-18T17:28:30.070Z,259.84205
2022-08-18T17:33:34.592Z,245.85735
2022-08-18T17:38:36.186Z,238.5094
2022-08-18T17:43:37.840Z,231.4577
2022-08-18T17:48:39.578Z,216.1101
2022-08-18T17:53:41.278Z,205.74
2022-08-18T17:58:42.899Z,200.40685
2022-08-18T18:03:44.532Z,213.38415
2022-08-18T18:08:46.279Z,209.829
2022-08-18T18:13:47.862Z,256.2865
2022-08-18T18:18:49.488Z,228.3173
2022-08-18T18:23:51.111Z,269.32315
2022-08-18T18:28:52.706Z,264.6419
2022-08-18T18:33:54.396Z,256.6422
2022-08-18T18:38:56.017Z,246.924
2022-08-18T18:43:57.622Z,231.9319
2022-08-18T18:48:59.208Z,218.7175
2022-08-18T18:54:00.864Z,213.6214
2022-08-18T18:59:02.439Z,200.9996
2022-08-18T19:04:04.028Z,177.83015
2022-08-18T19:09:05.606Z,186.126
2022-08-18T19:14:07.426Z,180.49655
2022-08-18T19:19:36.709Z,178.2448
2022-08-18T19:24:40.295Z,181.38545
2022-08-18T19:29:41.923Z,190.92585
2022-08-18T19:34:51.478Z,210.00665
2022-08-18T19:39:56.154Z,221.2063
2022-08-18T19:45:15.369Z,222.6284
2022-08-18T19:50:18.672Z,208.52525
2022-08-18T19:55:20.321Z,215.10285
2022-08-18T20:00:22.051Z,261.73805
2022-08-18T20:05:23.665Z,253.6791
2022-08-18T20:10:25.261Z,272.58205
2022-08-18T20:15:26.903Z,279.2781
2022-08-18T20:20:28.662Z,276.6115
2022-08-18T20:25:30.237Z,276.43365
2022-08-18T20:30:31.797Z,282.537
2022-08-18T20:35:33.409Z,280.46285
2022-08-18T20:40:35.051Z,284.66995
2022-08-18T20:45:36.821Z,268.6114
2022-08-18T20:50:47.812Z,275.72215
2022-08-18T20:55:53.128Z,278.56645
2022-08-18T21:00:55.102Z,279.33675
2022-08-18T21:05:56.783Z,294.4472
2022-08-18T21:10:58.398Z,301.1432
2022-08-18T21:16:00.154Z,298.23965
2022-08-18T21:21:01.824Z,219.72445
2022-08-18T21:26:06.345Z,307.7207
2022-08-18T21:31:41.772Z,300.7877
2022-08-18T21:36:45.160Z,293.91395
2022-08-18T21:41:46.768Z,290.00305
2022-08-18T21:46:48.419Z,282.29975
2022-08-18T21:51:50.103Z,283.4257
2022-08-18T21:56:51.707Z,267.9005
2022-08-18T22:01:53.491Z,269.0264
2022-08-18T22:06:55.093Z,272.1078
2022-08-18T22:12:00.674Z,271.7523
2022-08-18T22:17:04.122Z,267.90055
2022-08-18T22:22:05.728Z,265.17475
2022-08-18T22:27:07.410Z,260.01945
2022-08-18T22:32:09.058Z,255.33815
2022-08-18T22:37:10.699Z,249.5903
2022-08-18T22:42:12.551Z,245.5609
2022-08-18T22:47:14.222Z,240.05005
2022-08-18T22:52:15.917Z,235.60585
2022-08-18T22:57:17.547Z,233.59115
2022-08-18T23:02:21.912Z,220.49535
2022-08-18T23:07:23.819Z,218.5399
2022-08-18T23:12:25.409Z,217.11775
2022-08-18T23:17:26.985Z,206.33295
2022-08-18T23:22:28.844Z,206.98475
2022-08-18T23:27:30.477Z,196.31855
2022-08-18T23:32:33.381Z,202.4813
2022-08-18T23:37:34.952Z,198.6889
2022-08-18T23:42:36.519Z,178.0675
2022-08-18T23:47:38.119Z,187.54855
2022-08-18T23:52:39.695Z,180.2007
2022-08-18T23:57:41.410Z,177.11935
